Grand Chenier, Louisiana
Current Conditions -  °F | °C
As of 7:30 AM on Wednesday 22 Oct 2014 (Local Time) from KCVW Reporting Station
NA  
Wind Chill: 61°   Ceiling: NA
Heat Index: 61°   Visibility: 7mi
Dew Point: 59°   Wind: 5mph
Humidity: 94%   Direction: 50°NE
Pressure: 30.09"   Gusts: NA
Location:  29.77°N, 92.98°W
Report Text: KCVW 221230Z AUTO 05004KT 7SM 16/15 A3009 RMK A01
Loading
Personal Weather Stations






























Interactive Weather Map
Tropical Storm Tracking
New forecast layout! Learn more

10-Day Weather Forecast

Advertisements
Track Severe Weather on mobile